Terminal Aerodrome Forecast
Issued by NWS

Home | Current Version | Previous Version | Text Only | Print | Product List | Glossary On
Versions: 1 2 3 4 5 6 7 8 9 10 11 12 13 14 15 16 17 18 19 20 21 22 23 24 25 26 27 28 29 30 31 32 33 34 35 36 37 38 39 40
000
FTUS43 KDLH 201400 AAB
TAFBRD
TAF AMD
KBRD 201422Z 2014/2112 12004KT P6SM SCT012 BKN025
     FM201700 12004KT P6SM SCT012
     FM210500 11008KT P6SM VCSH SCT050 OVC110
     FM210800 12009KT 5SM BR VCSH BKN035 OVC080=

USA.gov is the U.S. government's official web portal to all federal, state and local government web resources and services.